sensor_id;sensor_type;location;lat;lon;timestamp;P1;durP1;ratioP1;P2;durP2;ratioP2
52894;SDS011;38759;53.396;6.722;2024-03-29T00:01:18;15.95;;;1.30;;
52894;SDS011;38759;53.396;6.722;2024-03-29T00:03:43;4.50;;;1.20;;
52894;SDS011;38759;53.396;6.722;2024-03-29T00:06:09;1.70;;;1.17;;
52894;SDS011;38759;53.396;6.722;2024-03-29T00:08:35;2.70;;;1.00;;
52894;SDS011;38759;53.396;6.722;2024-03-29T00:11:02;4.60;;;1.10;;
52894;SDS011;38759;53.396;6.722;2024-03-29T00:13:28;6.93;;;1.15;;
52894;SDS011;38759;53.396;6.722;2024-03-29T00:15:53;5.40;;;1.10;;
52894;SDS011;38759;53.396;6.722;2024-03-29T00:18:19;2.58;;;0.95;;
52894;SDS011;38759;53.396;6.722;2024-03-29T00:20:44;7.30;;;0.93;;
52894;SDS011;38759;53.396;6.722;2024-03-29T00:23:10;4.70;;;1.17;;
52894;SDS011;38759;53.396;6.722;2024-03-29T00:25:36;2.10;;;0.90;;
52894;SDS011;38759;53.396;6.722;2024-03-29T00:28:01;6.97;;;1.20;;
52894;SDS011;38759;53.396;6.722;2024-03-29T00:30:28;2.45;;;1.08;;
52894;SDS011;38759;53.396;6.722;2024-03-29T00:32:54;3.08;;;0.90;;
52894;SDS011;38759;53.396;6.722;2024-03-29T00:35:20;2.97;;;1.10;;
52894;SDS011;38759;53.396;6.722;2024-03-29T00:37:47;3.30;;;1.05;;
52894;SDS011;38759;53.396;6.722;2024-03-29T00:40:13;3.53;;;1.02;;
52894;SDS011;38759;53.396;6.722;2024-03-29T00:42:39;3.00;;;1.10;;
52894;SDS011;38759;53.396;6.722;2024-03-29T00:45:05;5.15;;;1.10;;
52894;SDS011;38759;53.396;6.722;2024-03-29T00:47:31;2.92;;;0.68;;
52894;SDS011;38759;53.396;6.722;2024-03-29T00:49:57;4.10;;;1.00;;
52894;SDS011;38759;53.396;6.722;2024-03-29T00:52:23;3.80;;;0.82;;
52894;SDS011;38759;53.396;6.722;2024-03-29T00:54:49;6.90;;;1.42;;
52894;SDS011;38759;53.396;6.722;2024-03-29T00:57:15;4.63;;;1.10;;
52894;SDS011;38759;53.396;6.722;2024-03-29T00:59:41;4.93;;;1.05;;
52894;SDS011;38759;53.396;6.722;2024-03-29T01:02:08;8.20;;;1.25;;
52894;SDS011;38759;53.396;6.722;2024-03-29T01:04:34;5.88;;;1.10;;
52894;SDS011;38759;53.396;6.722;2024-03-29T01:07:00;6.38;;;1.10;;
52894;SDS011;38759;53.396;6.722;2024-03-29T01:09:26;3.13;;;1.33;;
52894;SDS011;38759;53.396;6.722;2024-03-29T01:11:52;7.32;;;1.10;;
52894;SDS011;38759;53.396;6.722;2024-03-29T01:14:18;9.60;;;1.50;;
52894;SDS011;38759;53.396;6.722;2024-03-29T01:16:44;3.55;;;1.13;;
52894;SDS011;38759;53.396;6.722;2024-03-29T01:19:10;2.78;;;0.95;;
52894;SDS011;38759;53.396;6.722;2024-03-29T01:21:36;5.28;;;0.90;;
52894;SDS011;38759;53.396;6.722;2024-03-29T01:24:02;3.15;;;0.80;;
52894;SDS011;38759;53.396;6.722;2024-03-29T01:26:28;6.10;;;1.00;;
52894;SDS011;38759;53.396;6.722;2024-03-29T01:28:54;5.72;;;1.25;;
52894;SDS011;38759;53.396;6.722;2024-03-29T01:31:19;4.47;;;1.00;;
52894;SDS011;38759;53.396;6.722;2024-03-29T01:33:45;4.30;;;1.20;;
52894;SDS011;38759;53.396;6.722;2024-03-29T01:36:10;7.38;;;1.17;;
52894;SDS011;38759;53.396;6.722;2024-03-29T01:38:36;8.18;;;1.20;;
52894;SDS011;38759;53.396;6.722;2024-03-29T01:41:02;5.15;;;0.90;;
52894;SDS011;38759;53.396;6.722;2024-03-29T01:43:28;2.63;;;0.82;;
52894;SDS011;38759;53.396;6.722;2024-03-29T01:45:54;4.40;;;0.90;;
52894;SDS011;38759;53.396;6.722;2024-03-29T01:48:21;2.42;;;0.75;;
52894;SDS011;38759;53.396;6.722;2024-03-29T01:50:49;3.92;;;0.80;;
52894;SDS011;38759;53.396;6.722;2024-03-29T01:53:16;5.65;;;0.98;;
52894;SDS011;38759;53.396;6.722;2024-03-29T01:55:43;6.03;;;1.30;;
52894;SDS011;38759;53.396;6.722;2024-03-29T01:58:09;3.58;;;0.88;;
52894;SDS011;38759;53.396;6.722;2024-03-29T02:00:38;3.13;;;1.20;;
52894;SDS011;38759;53.396;6.722;2024-03-29T02:03:07;1.90;;;0.82;;
52894;SDS011;38759;53.396;6.722;2024-03-29T02:05:39;4.95;;;1.08;;
52894;SDS011;38759;53.396;6.722;2024-03-29T02:08:06;5.43;;;0.80;;
52894;SDS011;38759;53.396;6.722;2024-03-29T02:10:34;4.32;;;1.13;;
52894;SDS011;38759;53.396;6.722;2024-03-29T02:13:00;2.67;;;0.85;;
52894;SDS011;38759;53.396;6.722;2024-03-29T02:15:27;5.50;;;1.20;;
52894;SDS011;38759;53.396;6.722;2024-03-29T02:17:53;3.20;;;0.70;;
52894;SDS011;38759;53.396;6.722;2024-03-29T02:20:19;4.20;;;1.17;;
52894;SDS011;38759;53.396;6.722;2024-03-29T02:22:47;4.53;;;0.98;;
52894;SDS011;38759;53.396;6.722;2024-03-29T02:25:18;3.33;;;0.82;;
52894;SDS011;38759;53.396;6.722;2024-03-29T02:27:44;6.75;;;1.05;;
52894;SDS011;38759;53.396;6.722;2024-03-29T02:30:13;3.45;;;0.90;;
52894;SDS011;38759;53.396;6.722;2024-03-29T02:32:40;5.13;;;1.00;;
52894;SDS011;38759;53.396;6.722;2024-03-29T02:35:06;4.95;;;0.85;;
52894;SDS011;38759;53.396;6.722;2024-03-29T02:37:32;3.83;;;1.02;;
52894;SDS011;38759;53.396;6.722;2024-03-29T02:39:58;4.25;;;1.25;;
52894;SDS011;38759;53.396;6.722;2024-03-29T02:42:23;4.40;;;1.08;;
52894;SDS011;38759;53.396;6.722;2024-03-29T02:44:49;5.20;;;1.10;;
52894;SDS011;38759;53.396;6.722;2024-03-29T02:47:15;6.88;;;0.93;;
52894;SDS011;38759;53.396;6.722;2024-03-29T02:49:40;7.60;;;1.10;;
52894;SDS011;38759;53.396;6.722;2024-03-29T02:52:06;4.32;;;1.02;;
52894;SDS011;38759;53.396;6.722;2024-03-29T02:54:32;2.22;;;0.82;;
52894;SDS011;38759;53.396;6.722;2024-03-29T02:56:58;5.45;;;0.98;;
52894;SDS011;38759;53.396;6.722;2024-03-29T02:59:23;3.60;;;1.17;;
52894;SDS011;38759;53.396;6.722;2024-03-29T03:01:49;5.10;;;1.38;;
52894;SDS011;38759;53.396;6.722;2024-03-29T03:04:15;4.65;;;1.63;;
52894;SDS011;38759;53.396;6.722;2024-03-29T03:06:40;6.45;;;1.13;;
52894;SDS011;38759;53.396;6.722;2024-03-29T03:09:06;2.85;;;0.80;;
52894;SDS011;38759;53.396;6.722;2024-03-29T03:12:07;3.65;;;0.85;;
52894;SDS011;38759;53.396;6.722;2024-03-29T03:14:33;5.50;;;1.45;;
52894;SDS011;38759;53.396;6.722;2024-03-29T03:16:59;2.45;;;1.13;;
52894;SDS011;38759;53.396;6.722;2024-03-29T03:19:24;8.88;;;1.10;;
52894;SDS011;38759;53.396;6.722;2024-03-29T03:21:50;6.18;;;0.90;;
52894;SDS011;38759;53.396;6.722;2024-03-29T03:24:16;5.97;;;1.00;;
52894;SDS011;38759;53.396;6.722;2024-03-29T03:26:41;2.42;;;0.68;;
52894;SDS011;38759;53.396;6.722;2024-03-29T03:29:07;6.93;;;1.60;;
52894;SDS011;38759;53.396;6.722;2024-03-29T03:31:34;6.07;;;1.17;;
52894;SDS011;38759;53.396;6.722;2024-03-29T03:34:00;4.45;;;1.05;;
52894;SDS011;38759;53.396;6.722;2024-03-29T03:36:25;7.82;;;1.55;;
52894;SDS011;38759;53.396;6.722;2024-03-29T03:38:51;4.88;;;0.98;;
52894;SDS011;38759;53.396;6.722;2024-03-29T03:41:17;5.10;;;1.10;;
52894;SDS011;38759;53.396;6.722;2024-03-29T03:43:43;4.03;;;0.90;;
52894;SDS011;38759;53.396;6.722;2024-03-29T03:46:08;8.23;;;1.05;;
52894;SDS011;38759;53.396;6.722;2024-03-29T03:48:34;7.97;;;1.17;;
52894;SDS011;38759;53.396;6.722;2024-03-29T03:51:00;4.47;;;1.00;;
52894;SDS011;38759;53.396;6.722;2024-03-29T03:53:25;4.28;;;0.55;;
52894;SDS011;38759;53.396;6.722;2024-03-29T03:55:51;2.72;;;1.17;;
52894;SDS011;38759;53.396;6.722;2024-03-29T03:58:16;2.60;;;0.60;;
52894;SDS011;38759;53.396;6.722;2024-03-29T04:00:42;8.38;;;1.00;;
52894;SDS011;38759;53.396;6.722;2024-03-29T04:03:08;5.07;;;1.00;;
52894;SDS011;38759;53.396;6.722;2024-03-29T04:05:36;4.45;;;0.80;;
52894;SDS011;38759;53.396;6.722;2024-03-29T04:08:02;2.95;;;0.85;;
52894;SDS011;38759;53.396;6.722;2024-03-29T04:10:29;4.00;;;0.77;;
52894;SDS011;38759;53.396;6.722;2024-03-29T04:12:54;5.50;;;1.10;;
52894;SDS011;38759;53.396;6.722;2024-03-29T04:15:20;5.88;;;1.00;;
52894;SDS011;38759;53.396;6.722;2024-03-29T04:17:46;1.92;;;0.80;;
52894;SDS011;38759;53.396;6.722;2024-03-29T04:20:11;5.70;;;0.70;;
52894;SDS011;38759;53.396;6.722;2024-03-29T04:22:37;9.80;;;1.30;;
52894;SDS011;38759;53.396;6.722;2024-03-29T04:25:03;6.63;;;0.80;;
52894;SDS011;38759;53.396;6.722;2024-03-29T04:27:28;3.67;;;0.73;;
52894;SDS011;38759;53.396;6.722;2024-03-29T04:29:54;2.40;;;0.85;;
52894;SDS011;38759;53.396;6.722;2024-03-29T04:32:20;3.47;;;0.60;;
52894;SDS011;38759;53.396;6.722;2024-03-29T04:34:46;4.13;;;0.82;;
52894;SDS011;38759;53.396;6.722;2024-03-29T04:37:13;6.18;;;0.90;;
52894;SDS011;38759;53.396;6.722;2024-03-29T04:39:39;6.30;;;1.27;;
52894;SDS011;38759;53.396;6.722;2024-03-29T04:42:04;3.80;;;0.95;;
52894;SDS011;38759;53.396;6.722;2024-03-29T04:44:30;8.32;;;1.05;;
52894;SDS011;38759;53.396;6.722;2024-03-29T04:46:56;4.20;;;0.98;;
52894;SDS011;38759;53.396;6.722;2024-03-29T04:49:22;9.98;;;1.27;;
52894;SDS011;38759;53.396;6.722;2024-03-29T04:51:55;2.97;;;0.70;;
52894;SDS011;38759;53.396;6.722;2024-03-29T04:54:22;3.65;;;0.60;;
52894;SDS011;38759;53.396;6.722;2024-03-29T04:56:47;4.68;;;1.05;;
52894;SDS011;38759;53.396;6.722;2024-03-29T04:59:13;6.20;;;1.00;;
52894;SDS011;38759;53.396;6.722;2024-03-29T05:01:42;4.00;;;1.10;;
52894;SDS011;38759;53.396;6.722;2024-03-29T05:04:09;6.50;;;0.88;;
52894;SDS011;38759;53.396;6.722;2024-03-29T05:06:35;5.15;;;1.27;;
52894;SDS011;38759;53.396;6.722;2024-03-29T05:09:01;6.18;;;0.90;;
52894;SDS011;38759;53.396;6.722;2024-03-29T05:11:26;6.03;;;1.10;;
52894;SDS011;38759;53.396;6.722;2024-03-29T05:13:52;2.50;;;0.80;;
52894;SDS011;38759;53.396;6.722;2024-03-29T05:16:18;3.60;;;0.73;;
52894;SDS011;38759;53.396;6.722;2024-03-29T05:18:43;5.88;;;0.93;;
52894;SDS011;38759;53.396;6.722;2024-03-29T05:21:09;4.25;;;0.88;;
52894;SDS011;38759;53.396;6.722;2024-03-29T05:23:35;4.47;;;1.00;;
52894;SDS011;38759;53.396;6.722;2024-03-29T05:26:00;7.32;;;1.17;;
52894;SDS011;38759;53.396;6.722;2024-03-29T05:28:26;2.83;;;0.85;;
52894;SDS011;38759;53.396;6.722;2024-03-29T05:30:52;2.80;;;0.85;;
52894;SDS011;38759;53.396;6.722;2024-03-29T05:33:17;4.65;;;0.77;;
52894;SDS011;38759;53.396;6.722;2024-03-29T05:35:43;6.93;;;0.85;;
52894;SDS011;38759;53.396;6.722;2024-03-29T05:38:09;1.48;;;0.60;;
52894;SDS011;38759;53.396;6.722;2024-03-29T05:40:34;3.08;;;0.88;;
52894;SDS011;38759;53.396;6.722;2024-03-29T05:43:00;3.08;;;0.68;;
52894;SDS011;38759;53.396;6.722;2024-03-29T05:45:29;4.68;;;0.88;;
52894;SDS011;38759;53.396;6.722;2024-03-29T05:47:56;5.57;;;1.00;;
52894;SDS011;38759;53.396;6.722;2024-03-29T05:50:23;1.80;;;0.68;;
52894;SDS011;38759;53.396;6.722;2024-03-29T05:52:50;3.55;;;0.75;;
52894;SDS011;38759;53.396;6.722;2024-03-29T05:55:16;3.65;;;0.93;;
52894;SDS011;38759;53.396;6.722;2024-03-29T05:57:41;3.83;;;1.08;;
52894;SDS011;38759;53.396;6.722;2024-03-29T06:00:10;4.07;;;0.98;;
52894;SDS011;38759;53.396;6.722;2024-03-29T06:02:36;5.57;;;0.90;;
52894;SDS011;38759;53.396;6.722;2024-03-29T06:05:02;4.03;;;0.90;;
52894;SDS011;38759;53.396;6.722;2024-03-29T06:07:30;5.60;;;0.93;;
52894;SDS011;38759;53.396;6.722;2024-03-29T06:09:58;3.80;;;0.90;;
52894;SDS011;38759;53.396;6.722;2024-03-29T06:12:26;4.30;;;0.98;;
52894;SDS011;38759;53.396;6.722;2024-03-29T06:14:52;6.18;;;0.90;;
52894;SDS011;38759;53.396;6.722;2024-03-29T06:17:36;4.03;;;1.38;;
52894;SDS011;38759;53.396;6.722;2024-03-29T06:20:02;3.78;;;0.80;;
52894;SDS011;38759;53.396;6.722;2024-03-29T06:22:29;2.65;;;0.85;;
52894;SDS011;38759;53.396;6.722;2024-03-29T06:24:56;3.00;;;1.05;;
52894;SDS011;38759;53.396;6.722;2024-03-29T06:27:30;3.38;;;1.10;;
52894;SDS011;38759;53.396;6.722;2024-03-29T06:29:56;5.68;;;0.65;;
52894;SDS011;38759;53.396;6.722;2024-03-29T06:32:22;2.33;;;0.95;;
52894;SDS011;38759;53.396;6.722;2024-03-29T06:34:48;3.55;;;0.90;;
52894;SDS011;38759;53.396;6.722;2024-03-29T06:37:13;7.22;;;1.00;;
52894;SDS011;38759;53.396;6.722;2024-03-29T06:39:39;2.88;;;0.68;;
52894;SDS011;38759;53.396;6.722;2024-03-29T06:42:05;2.67;;;0.85;;
52894;SDS011;38759;53.396;6.722;2024-03-29T06:44:34;3.40;;;0.70;;
52894;SDS011;38759;53.396;6.722;2024-03-29T06:47:00;15.48;;;1.25;;
52894;SDS011;38759;53.396;6.722;2024-03-29T06:49:26;2.25;;;0.90;;
52894;SDS011;38759;53.396;6.722;2024-03-29T06:51:52;2.17;;;0.63;;
52894;SDS011;38759;53.396;6.722;2024-03-29T06:54:18;4.22;;;1.00;;
52894;SDS011;38759;53.396;6.722;2024-03-29T06:56:47;5.68;;;0.80;;
52894;SDS011;38759;53.396;6.722;2024-03-29T06:59:13;3.22;;;0.90;;
52894;SDS011;38759;53.396;6.722;2024-03-29T07:01:39;12.43;;;0.70;;
52894;SDS011;38759;53.396;6.722;2024-03-29T07:04:05;0.55;;;0.50;;
52894;SDS011;38759;53.396;6.722;2024-03-29T07:06:31;1.25;;;0.50;;
52894;SDS011;38759;53.396;6.722;2024-03-29T07:08:57;5.28;;;0.70;;
52894;SDS011;38759;53.396;6.722;2024-03-29T07:11:23;3.53;;;0.70;;
52894;SDS011;38759;53.396;6.722;2024-03-29T07:13:48;1.98;;;1.02;;
52894;SDS011;38759;53.396;6.722;2024-03-29T07:16:14;3.30;;;0.73;;
52894;SDS011;38759;53.396;6.722;2024-03-29T07:18:39;3.72;;;0.80;;
52894;SDS011;38759;53.396;6.722;2024-03-29T07:21:05;1.70;;;0.70;;
52894;SDS011;38759;53.396;6.722;2024-03-29T07:23:31;2.40;;;0.65;;
52894;SDS011;38759;53.396;6.722;2024-03-29T07:26:03;2.55;;;0.60;;
52894;SDS011;38759;53.396;6.722;2024-03-29T07:28:31;1.33;;;0.65;;
52894;SDS011;38759;53.396;6.722;2024-03-29T07:31:04;2.03;;;0.50;;
52894;SDS011;38759;53.396;6.722;2024-03-29T07:33:32;3.47;;;0.93;;
52894;SDS011;38759;53.396;6.722;2024-03-29T07:35:58;1.63;;;0.60;;
52894;SDS011;38759;53.396;6.722;2024-03-29T07:38:23;4.32;;;0.63;;
52894;SDS011;38759;53.396;6.722;2024-03-29T07:40:50;2.15;;;0.50;;
52894;SDS011;38759;53.396;6.722;2024-03-29T07:43:17;1.60;;;0.60;;
52894;SDS011;38759;53.396;6.722;2024-03-29T07:45:43;3.65;;;0.63;;
52894;SDS011;38759;53.396;6.722;2024-03-29T07:48:13;5.10;;;0.77;;
52894;SDS011;38759;53.396;6.722;2024-03-29T07:50:40;1.73;;;0.60;;
52894;SDS011;38759;53.396;6.722;2024-03-29T07:53:06;2.65;;;0.70;;
52894;SDS011;38759;53.396;6.722;2024-03-29T07:55:32;3.00;;;0.60;;
52894;SDS011;38759;53.396;6.722;2024-03-29T07:57:58;2.72;;;0.90;;
52894;SDS011;38759;53.396;6.722;2024-03-29T08:02:51;3.88;;;0.68;;
52894;SDS011;38759;53.396;6.722;2024-03-29T08:05:18;1.48;;;0.65;;
52894;SDS011;38759;53.396;6.722;2024-03-29T08:07:47;0.95;;;0.50;;
52894;SDS011;38759;53.396;6.722;2024-03-29T08:10:12;2.80;;;0.80;;
52894;SDS011;38759;53.396;6.722;2024-03-29T08:12:38;3.10;;;0.70;;
52894;SDS011;38759;53.396;6.722;2024-03-29T08:15:04;3.65;;;1.00;;
52894;SDS011;38759;53.396;6.722;2024-03-29T08:17:30;2.10;;;0.60;;
52894;SDS011;38759;53.396;6.722;2024-03-29T08:19:56;2.78;;;0.77;;
52894;SDS011;38759;53.396;6.722;2024-03-29T08:22:21;1.77;;;0.70;;
52894;SDS011;38759;53.396;6.722;2024-03-29T08:24:50;7.97;;;0.80;;
52894;SDS011;38759;53.396;6.722;2024-03-29T08:27:16;2.75;;;0.80;;
52894;SDS011;38759;53.396;6.722;2024-03-29T08:29:42;3.00;;;0.70;;
52894;SDS011;38759;53.396;6.722;2024-03-29T08:32:08;1.23;;;0.55;;
52894;SDS011;38759;53.396;6.722;2024-03-29T08:34:35;3.35;;;0.60;;
52894;SDS011;38759;53.396;6.722;2024-03-29T08:37:02;3.08;;;0.80;;
52894;SDS011;38759;53.396;6.722;2024-03-29T08:39:28;3.78;;;0.70;;
52894;SDS011;38759;53.396;6.722;2024-03-29T08:42:00;3.35;;;0.80;;
52894;SDS011;38759;53.396;6.722;2024-03-29T08:44:33;0.60;;;0.47;;
52894;SDS011;38759;53.396;6.722;2024-03-29T08:46:59;1.27;;;0.40;;
52894;SDS011;38759;53.396;6.722;2024-03-29T08:49:29;1.30;;;0.60;;
52894;SDS011;38759;53.396;6.722;2024-03-29T08:51:58;2.65;;;0.80;;
52894;SDS011;38759;53.396;6.722;2024-03-29T08:54:25;1.20;;;0.28;;
52894;SDS011;38759;53.396;6.722;2024-03-29T08:56:53;2.83;;;0.60;;
52894;SDS011;38759;53.396;6.722;2024-03-29T08:59:18;5.60;;;1.27;;
52894;SDS011;38759;53.396;6.722;2024-03-29T09:01:45;1.85;;;0.50;;
52894;SDS011;38759;53.396;6.722;2024-03-29T09:04:13;2.35;;;0.80;;
52894;SDS011;38759;53.396;6.722;2024-03-29T09:06:40;1.67;;;0.80;;
52894;SDS011;38759;53.396;6.722;2024-03-29T09:09:06;4.70;;;0.77;;
52894;SDS011;38759;53.396;6.722;2024-03-29T09:11:33;5.15;;;1.00;;
52894;SDS011;38759;53.396;6.722;2024-03-29T09:13:59;3.80;;;0.85;;
52894;SDS011;38759;53.396;6.722;2024-03-29T09:16:26;1.48;;;0.50;;
52894;SDS011;38759;53.396;6.722;2024-03-29T09:18:53;0.93;;;0.55;;
52894;SDS011;38759;53.396;6.722;2024-03-29T09:21:19;3.53;;;0.80;;
52894;SDS011;38759;53.396;6.722;2024-03-29T09:23:45;0.65;;;0.52;;
52894;SDS011;38759;53.396;6.722;2024-03-29T09:26:11;1.20;;;0.70;;
52894;SDS011;38759;53.396;6.722;2024-03-29T09:28:39;1.35;;;0.50;;
52894;SDS011;38759;53.396;6.722;2024-03-29T09:31:05;0.73;;;0.63;;
52894;SDS011;38759;53.396;6.722;2024-03-29T09:33:31;2.42;;;0.65;;
52894;SDS011;38759;53.396;6.722;2024-03-29T09:35:57;0.90;;;0.43;;
52894;SDS011;38759;53.396;6.722;2024-03-29T09:38:27;0.68;;;0.45;;
52894;SDS011;38759;53.396;6.722;2024-03-29T09:43:41;1.55;;;0.55;;
52894;SDS011;38759;53.396;6.722;2024-03-29T09:46:10;2.05;;;0.50;;
52894;SDS011;38759;53.396;6.722;2024-03-29T09:48:39;3.60;;;0.43;;
52894;SDS011;38759;53.396;6.722;2024-03-29T09:51:06;1.40;;;0.60;;
52894;SDS011;38759;53.396;6.722;2024-03-29T09:53:36;1.13;;;0.60;;
52894;SDS011;38759;53.396;6.722;2024-03-29T09:56:03;1.05;;;0.60;;
52894;SDS011;38759;53.396;6.722;2024-03-29T09:58:30;1.10;;;0.50;;
52894;SDS011;38759;53.396;6.722;2024-03-29T10:01:00;2.33;;;0.70;;
52894;SDS011;38759;53.396;6.722;2024-03-29T10:03:28;3.58;;;0.63;;
52894;SDS011;38759;53.396;6.722;2024-03-29T10:05:58;1.48;;;0.60;;
52894;SDS011;38759;53.396;6.722;2024-03-29T10:08:29;0.40;;;0.30;;
52894;SDS011;38759;53.396;6.722;2024-03-29T10:10:59;0.82;;;0.45;;
52894;SDS011;38759;53.396;6.722;2024-03-29T10:13:25;0.40;;;0.30;;
52894;SDS011;38759;53.396;6.722;2024-03-29T10:15:52;1.05;;;0.45;;
52894;SDS011;38759;53.396;6.722;2024-03-29T10:18:21;0.57;;;0.52;;
52894;SDS011;38759;53.396;6.722;2024-03-29T10:20:57;2.33;;;0.82;;
52894;SDS011;38759;53.396;6.722;2024-03-29T10:23:27;1.30;;;0.80;;
52894;SDS011;38759;53.396;6.722;2024-03-29T10:25:54;0.38;;;0.38;;
52894;SDS011;38759;53.396;6.722;2024-03-29T10:28:19;1.08;;;0.73;;
52894;SDS011;38759;53.396;6.722;2024-03-29T10:30:45;1.48;;;0.60;;
52894;SDS011;38759;53.396;6.722;2024-03-29T10:33:13;2.83;;;0.93;;
52894;SDS011;38759;53.396;6.722;2024-03-29T10:35:45;1.25;;;0.70;;
52894;SDS011;38759;53.396;6.722;2024-03-29T10:38:11;0.70;;;0.70;;
52894;SDS011;38759;53.396;6.722;2024-03-29T10:40:40;3.50;;;1.05;;
52894;SDS011;38759;53.396;6.722;2024-03-29T10:43:10;2.08;;;0.90;;
52894;SDS011;38759;53.396;6.722;2024-03-29T10:45:41;0.70;;;0.63;;
52894;SDS011;38759;53.396;6.722;2024-03-29T10:48:08;1.67;;;0.98;;
52894;SDS011;38759;53.396;6.722;2024-03-29T10:50:35;3.00;;;1.02;;
52894;SDS011;38759;53.396;6.722;2024-03-29T10:53:02;2.20;;;0.98;;
52894;SDS011;38759;53.396;6.722;2024-03-29T10:55:35;1.55;;;0.90;;
52894;SDS011;38759;53.396;6.722;2024-03-29T10:58:02;2.72;;;1.10;;
52894;SDS011;38759;53.396;6.722;2024-03-29T11:00:32;1.92;;;0.80;;
52894;SDS011;38759;53.396;6.722;2024-03-29T11:05:32;2.85;;;0.80;;
52894;SDS011;38759;53.396;6.722;2024-03-29T11:08:01;2.05;;;0.80;;
52894;SDS011;38759;53.396;6.722;2024-03-29T11:10:30;2.72;;;0.82;;
52894;SDS011;38759;53.396;6.722;2024-03-29T11:13:12;0.88;;;0.63;;
52894;SDS011;38759;53.396;6.722;2024-03-29T11:15:53;1.88;;;0.80;;
52894;SDS011;38759;53.396;6.722;2024-03-29T11:18:19;0.85;;;0.60;;
52894;SDS011;38759;53.396;6.722;2024-03-29T11:20:46;0.98;;;0.60;;
52894;SDS011;38759;53.396;6.722;2024-03-29T11:23:16;2.30;;;0.73;;
52894;SDS011;38759;53.396;6.722;2024-03-29T11:28:11;1.85;;;0.80;;
52894;SDS011;38759;53.396;6.722;2024-03-29T11:30:42;0.88;;;0.75;;
52894;SDS011;38759;53.396;6.722;2024-03-29T11:33:27;0.75;;;0.70;;
52894;SDS011;38759;53.396;6.722;2024-03-29T11:35:53;1.30;;;0.88;;
52894;SDS011;38759;53.396;6.722;2024-03-29T11:38:19;3.90;;;1.50;;
52894;SDS011;38759;53.396;6.722;2024-03-29T11:40:55;1.33;;;0.82;;
52894;SDS011;38759;53.396;6.722;2024-03-29T11:43:35;1.98;;;1.00;;
52894;SDS011;38759;53.396;6.722;2024-03-29T11:46:02;1.92;;;0.90;;
52894;SDS011;38759;53.396;6.722;2024-03-29T11:48:33;1.25;;;1.00;;
52894;SDS011;38759;53.396;6.722;2024-03-29T11:50:59;1.50;;;1.00;;
52894;SDS011;38759;53.396;6.722;2024-03-29T11:53:26;1.58;;;0.90;;
52894;SDS011;38759;53.396;6.722;2024-03-29T11:55:53;2.03;;;1.08;;
52894;SDS011;38759;53.396;6.722;2024-03-29T11:58:23;2.40;;;0.88;;
52894;SDS011;38759;53.396;6.722;2024-03-29T12:00:49;1.10;;;0.95;;
52894;SDS011;38759;53.396;6.722;2024-03-29T12:03:16;1.35;;;0.90;;
52894;SDS011;38759;53.396;6.722;2024-03-29T12:05:47;2.78;;;0.95;;
52894;SDS011;38759;53.396;6.722;2024-03-29T12:08:14;2.10;;;0.98;;
52894;SDS011;38759;53.396;6.722;2024-03-29T12:10:40;2.13;;;1.00;;
52894;SDS011;38759;53.396;6.722;2024-03-29T12:13:07;2.00;;;1.10;;
52894;SDS011;38759;53.396;6.722;2024-03-29T12:15:33;1.90;;;1.13;;
52894;SDS011;38759;53.396;6.722;2024-03-29T12:17:59;3.03;;;1.30;;
52894;SDS011;38759;53.396;6.722;2024-03-29T12:20:30;1.73;;;1.30;;
52894;SDS011;38759;53.396;6.722;2024-03-29T12:23:00;2.83;;;1.15;;
52894;SDS011;38759;53.396;6.722;2024-03-29T12:25:27;2.08;;;1.08;;
52894;SDS011;38759;53.396;6.722;2024-03-29T12:27:57;2.78;;;1.33;;
52894;SDS011;38759;53.396;6.722;2024-03-29T12:30:24;3.17;;;1.20;;
52894;SDS011;38759;53.396;6.722;2024-03-29T12:33:00;2.22;;;1.33;;
52894;SDS011;38759;53.396;6.722;2024-03-29T12:35:31;2.55;;;1.50;;
52894;SDS011;38759;53.396;6.722;2024-03-29T12:37:58;2.00;;;1.52;;
52894;SDS011;38759;53.396;6.722;2024-03-29T12:40:25;2.65;;;1.30;;
52894;SDS011;38759;53.396;6.722;2024-03-29T12:42:54;2.30;;;1.40;;
52894;SDS011;38759;53.396;6.722;2024-03-29T12:45:21;3.22;;;1.25;;
52894;SDS011;38759;53.396;6.722;2024-03-29T12:47:48;4.68;;;1.80;;
52894;SDS011;38759;53.396;6.722;2024-03-29T12:50:19;4.90;;;1.85;;
52894;SDS011;38759;53.396;6.722;2024-03-29T12:52:55;3.83;;;1.40;;
52894;SDS011;38759;53.396;6.722;2024-03-29T12:55:31;4.93;;;1.60;;
52894;SDS011;38759;53.396;6.722;2024-03-29T12:58:00;3.88;;;1.65;;
52894;SDS011;38759;53.396;6.722;2024-03-29T13:00:27;5.85;;;1.60;;
52894;SDS011;38759;53.396;6.722;2024-03-29T13:02:53;3.70;;;1.70;;
52894;SDS011;38759;53.396;6.722;2024-03-29T13:05:19;2.75;;;1.73;;
52894;SDS011;38759;53.396;6.722;2024-03-29T13:07:45;4.97;;;2.13;;
52894;SDS011;38759;53.396;6.722;2024-03-29T13:10:11;8.63;;;2.00;;
52894;SDS011;38759;53.396;6.722;2024-03-29T13:12:45;4.80;;;1.90;;
52894;SDS011;38759;53.396;6.722;2024-03-29T13:15:24;3.42;;;1.65;;
52894;SDS011;38759;53.396;6.722;2024-03-29T13:17:52;2.78;;;1.73;;
52894;SDS011;38759;53.396;6.722;2024-03-29T13:20:18;3.83;;;1.90;;
52894;SDS011;38759;53.396;6.722;2024-03-29T13:22:48;6.65;;;1.85;;
52894;SDS011;38759;53.396;6.722;2024-03-29T13:25:24;4.95;;;1.95;;
52894;SDS011;38759;53.396;6.722;2024-03-29T13:27:50;6.80;;;2.30;;
52894;SDS011;38759;53.396;6.722;2024-03-29T13:30:21;4.35;;;2.20;;
52894;SDS011;38759;53.396;6.722;2024-03-29T13:32:48;3.38;;;1.50;;
52894;SDS011;38759;53.396;6.722;2024-03-29T13:35:13;5.22;;;1.90;;
52894;SDS011;38759;53.396;6.722;2024-03-29T13:37:40;2.97;;;2.00;;
52894;SDS011;38759;53.396;6.722;2024-03-29T13:40:17;5.20;;;1.90;;
52894;SDS011;38759;53.396;6.722;2024-03-29T13:42:45;5.32;;;2.00;;
52894;SDS011;38759;53.396;6.722;2024-03-29T13:45:11;3.97;;;2.15;;
52894;SDS011;38759;53.396;6.722;2024-03-29T13:47:40;2.75;;;1.92;;
52894;SDS011;38759;53.396;6.722;2024-03-29T13:50:07;4.78;;;2.13;;
52894;SDS011;38759;53.396;6.722;2024-03-29T13:52:34;3.38;;;2.10;;
52894;SDS011;38759;53.396;6.722;2024-03-29T13:55:01;4.35;;;2.05;;
52894;SDS011;38759;53.396;6.722;2024-03-29T13:57:28;2.75;;;2.28;;
52894;SDS011;38759;53.396;6.722;2024-03-29T13:59:55;4.68;;;2.47;;
52894;SDS011;38759;53.396;6.722;2024-03-29T14:02:20;3.67;;;2.40;;
52894;SDS011;38759;53.396;6.722;2024-03-29T14:04:48;5.88;;;2.33;;
52894;SDS011;38759;53.396;6.722;2024-03-29T14:07:14;4.55;;;2.35;;
52894;SDS011;38759;53.396;6.722;2024-03-29T14:09:41;6.55;;;2.35;;
52894;SDS011;38759;53.396;6.722;2024-03-29T14:12:08;5.57;;;1.83;;
52894;SDS011;38759;53.396;6.722;2024-03-29T14:14:34;4.07;;;1.92;;
52894;SDS011;38759;53.396;6.722;2024-03-29T14:17:00;4.50;;;1.92;;
52894;SDS011;38759;53.396;6.722;2024-03-29T14:19:30;2.42;;;1.63;;
52894;SDS011;38759;53.396;6.722;2024-03-29T14:21:56;4.57;;;1.58;;
52894;SDS011;38759;53.396;6.722;2024-03-29T14:24:22;2.92;;;1.92;;
52894;SDS011;38759;53.396;6.722;2024-03-29T14:26:53;3.85;;;1.65;;
52894;SDS011;38759;53.396;6.722;2024-03-29T14:29:19;2.03;;;1.33;;
52894;SDS011;38759;53.396;6.722;2024-03-29T14:31:49;1.95;;;1.50;;
52894;SDS011;38759;53.396;6.722;2024-03-29T14:34:16;3.58;;;1.70;;
52894;SDS011;38759;53.396;6.722;2024-03-29T14:36:42;2.38;;;1.27;;
52894;SDS011;38759;53.396;6.722;2024-03-29T14:39:09;5.30;;;1.20;;
52894;SDS011;38759;53.396;6.722;2024-03-29T14:41:37;4.10;;;1.30;;
52894;SDS011;38759;53.396;6.722;2024-03-29T14:44:04;1.75;;;1.45;;
52894;SDS011;38759;53.396;6.722;2024-03-29T14:46:33;4.97;;;3.03;;
52894;SDS011;38759;53.396;6.722;2024-03-29T14:49:02;2.90;;;1.60;;
52894;SDS011;38759;53.396;6.722;2024-03-29T14:51:31;1.60;;;1.10;;
52894;SDS011;38759;53.396;6.722;2024-03-29T14:53:57;0.85;;;0.70;;
52894;SDS011;38759;53.396;6.722;2024-03-29T14:56:23;3.80;;;1.08;;
52894;SDS011;38759;53.396;6.722;2024-03-29T14:58:48;1.80;;;1.00;;